Blowing Sand Mountains, Nevada Weather observations

Data are for observation ending at time listed.
 Day   Time    Ave.   Ave.  Ave.  Vector   Max.   Stn.    Total    Solar   Ave.  
  of    of     Air    Rel.  Wind   Wind    Wind   Baro.  Precip.   Rad.    Soil  
Year   Day     Temp.  Hum.  Speed  Dir.    Gust   Pres.                    Temp. 
2016   (PST)    F      %     mph   deg.    mph     mb.     in.     W/m2     F   
------------------------------------------------------------------------------
 339   10:30   43.2    31    7.7   122     10.9    885.1     0.00     308     40.1
 339   10:40   44.0    30    8.2   116     12.0    884.8     0.00     327     40.1
 339   10:50   44.1    29    8.3   119     12.0    884.7     0.00     228     40.1
 339   11:00   44.6    28    7.7   128     10.3    884.5     0.00     219     40.1
 339   11:10   44.6    28    8.4   130     12.6    884.3     0.00     210     40.1
 339   11:20   44.8    28    6.9   130      9.8    884.2     0.00     212     40.1
 339   11:30   45.4    28    6.6   135     10.4    884.0     0.00     177     40.1
 339   11:40   45.6    27    6.4   152     10.0    883.7     0.00     165     40.0
 339   11:50   45.7    27    7.9   145     11.4    883.5     0.00     201     40.0
 339   12:00   46.2    28    6.3   146      9.8    883.3     0.00     238     40.0
 339   12:10   46.7    26    7.2   137     10.2    883.1     0.00     241     40.0
 339   12:20   47.0    26    7.7   148     11.8    883.0     0.00     228     40.0
 339   12:30   47.7    25    7.2   142     10.7    882.9     0.00     377     40.0
 339   12:40   48.9    24    8.4   123     12.0    882.6     0.00     507     39.9
 339   12:50   49.6    23    8.6   127     12.6    882.5     0.00     448     39.9
 339   13:00   50.5    22    7.7   150     11.9    882.3     0.00     369     39.9
 339   13:10   51.1    21    6.8   152      9.7    882.2     0.00     386     39.9
 339   13:20   50.8    21    5.5   152      8.3    882.1     0.00     267     39.9
 339   13:30   51.0    20    6.6   152     10.2    881.9     0.00     348     40.0
 339   13:40   52.1    20    5.6   162      7.7    881.8     0.00     377     40.0
 339   13:50   51.9    19    6.9   170      9.6    881.7     0.00     255     40.0
 339   14:00   52.1    20    7.1   171      9.9    881.5     0.00     286     40.0
 339   14:10   51.9    20    5.9   159      8.3    881.3     0.00     239     40.0
 339   14:20   51.4    20    5.9   167      8.4    881.2     0.00     190     40.0
 339   14:30   51.6    20    5.6   168      8.3    881.1     0.00     195     40.0
 339   14:40   51.9    20    5.1   168      9.3    881.0     0.00     256     40.0
 339   14:50   52.3    19    5.6   162      8.4    880.8     0.00     216     40.0
 339   15:00   52.3    19    4.4   125      7.5    880.8     0.00     218     40.0
 339   15:10   52.3    19    4.3   139      7.5    880.8     0.00     139     40.1
 339   15:20   51.6    19    5.0   134      9.0    880.7     0.00      94     40.1
 339   15:30   50.4    20    8.4   141     11.5    880.6     0.00      81     40.1
 339   15:40   50.1    20    7.9   148     12.1    880.4     0.00      59     40.2
 339   15:50   50.1    20    6.8   143      9.9    880.2     0.00      50     40.2
 339   16:00   49.8    20    7.7   148     11.6    880.2     0.00      33     40.2
 339   16:10   48.8    22    1.9   151      5.2    880.3     0.00      19     40.2
 339   16:20   47.5    23    3.6   137      7.5    880.2     0.00      10     40.2
 339   16:30   46.7    24    3.3   129      5.3    880.1     0.00       4     40.3
 339   16:40   46.3    25    2.3   107      6.1    880.0     0.00       1     40.3
 339   16:50   44.8    27    4.2    85      6.4    879.9     0.00       0     40.3
 339   17:00   45.0    26    2.2    98      5.3    879.8     0.00       0     40.4
 339   17:10   44.5    27    0.4   101      5.0    879.7     0.00       0     40.4
 339   17:20   44.0    27    1.4    75      4.6    879.7     0.00       0     40.4
 339   17:30   43.4    28    0.2    97      4.2    879.7     0.00       0     40.5
 339   17:40   42.2    29    0.1   201      3.8    879.8     0.00       0     40.5
 339   17:50   43.1    28    0.0     0      0.0    879.8     0.00       0     40.5
 339   18:00   42.4    29    1.3   135      5.5    879.8     0.00       0     40.6
 339   18:10   42.1    29    2.4   142      6.6    879.8     0.00       0     40.6
 339   18:20   40.6    31    1.2   101      5.4    879.9     0.00       0     40.6
 339   18:30   40.4    31    1.8   120      7.3    879.7     0.00       0     40.7
 339   18:40   39.6    32    0.6   112      4.3    879.8     0.00       0     40.7
 339   18:50   38.1    34    1.3   115      4.4    879.8     0.00       0     40.7
 339   19:00   36.3    37    0.0     0      0.0    879.9     0.00       0     40.7
 339   19:10   35.6    39    0.1   149      3.6    879.8     0.00       0     40.7
 339   19:20   35.2    39    1.0   168      5.5    879.8     0.00       0     40.8
 339   19:30   35.5    39    1.3   135      5.6    879.9     0.00       0     40.8
 339   19:40   34.5    40    0.3   140      3.8    879.9     0.00       0     40.8
 339   19:50   33.2    44    3.3   128      7.1    880.0     0.00       0     40.9
 339   20:00   31.8    46    0.9   103      5.3    879.8     0.00       0     40.9
 339   20:10   31.2    48    1.7   131      5.0    879.7     0.00       0     40.9
 339   20:20   31.1    48    0.4   173      3.6    879.7     0.00       0     40.9
 339   20:30   30.6    49    2.0   145      5.8    879.6     0.00       0     40.9
 339   20:40   29.9    50    1.1   189      5.0    879.5     0.00       0     41.0
 339   20:50   29.7    51    0.9    34      5.3    879.6     0.00       0     41.0
 339   21:00   30.2    51    2.0   194      8.6    879.6     0.00       0     41.0
 339   21:10   31.3    49    2.8    93     11.2    879.7     0.00       0     41.0
 339   21:20   32.0    47    0.9     0      5.7    879.8     0.00       0     41.0
 339   21:30   31.8    47    0.3   210      4.4    879.7     0.00       0     41.0
 339   21:40   28.7    50    1.3   269      4.5    879.7     0.00       0     41.1
 339   21:50   27.8    52    1.7   279      8.2    879.8     0.00       0     41.1
 339   22:00   28.1    52    0.0   327      0.2    879.8     0.00       0     41.1
 339   22:10   27.0    54    0.4   111      4.4    879.9     0.00       0     41.1
 339   22:20   26.4    56    0.0     0      0.0    880.0     0.00       0     41.1
 339   22:30   27.0    56    0.2   120      4.0    880.0     0.00       0     41.2
 339   22:40   26.4    57    0.3   116      4.2    880.1     0.00       0     41.1
 339   22:50   26.1    57    2.3   137      4.6    880.1     0.00       0     41.2
 339   23:00   26.2    57    0.9   189      4.7    880.1     0.00       0     41.2
 339   23:10   24.9    58    1.6   183      5.0    880.3     0.00       0     41.2
 339   23:20   25.6    59    1.4   172      6.0    880.4     0.00       0     41.2
 339   23:30   27.0    57    1.1   126      4.7    880.4     0.00       0     41.2
 339   23:40   27.5    56    2.2    90      6.9    880.4     0.00       0     41.2
 339   23:50   28.9    54    1.3   336      6.2    880.5     0.00       0     41.2
 340    0:00   29.2    51    0.8    22      5.7    880.6     0.00       0     41.2
 340    0:10   28.0    53    0.0     0      0.0    880.6     0.00       0     41.2
 340    0:20   27.5    54    1.1    58      6.4    880.4     0.00       0     41.2
 340    0:30   28.0    54    1.9    89      6.1    880.4     0.00       0     41.2
 340    0:40   26.9    55    2.2   180      6.2    880.4     0.00       0     41.2
 340    0:50   25.5    58    2.7    80      5.8    880.4     0.00       0     41.2
 340    1:00   26.1    58    2.3   110      5.6    880.4     0.00       0     41.2
 340    1:10   28.3    58    2.8   136      8.0    880.2     0.00       0     41.2
 340    1:20   32.9    48    1.1    23      4.8    880.3     0.00       0     41.2
 340    1:30   28.8    53    1.3   352      5.1    880.5     0.00       0     41.2
 340    1:40   26.2    56    1.0   308      4.6    880.6     0.00       0     41.2
 340    1:50   24.6    58    0.4    30      4.9    880.6     0.00       0     41.2
 340    2:00   29.9    53    1.3    36      7.8    880.5     0.00       0     41.2
 340    2:10   35.4    45    2.5   274      9.5    880.5     0.00       0     41.2
 340    2:20   28.9    52    3.3   221      9.7    880.5     0.00       0     41.2
 340    2:30   27.2    58    2.7   226      5.8    880.5     0.00       0     41.2
 340    2:40   29.2    56    2.8   197      5.8    880.6     0.00       0     41.2
 340    2:50   28.6    56    1.0    69      5.5    880.6     0.00       0     41.2
 340    3:00   27.9    57    0.0     0      0.0    880.6     0.00       0     41.2
 340    3:10   26.5    60    1.2   165      5.5    880.5     0.00       0     41.2
 340    3:20   25.9    62    4.9   177      8.6    880.5     0.00       0     41.2
 340    3:30   24.4    63    2.9   175      5.7    880.5     0.00       0     41.1
 340    3:40   24.0    64    1.8   171      6.4    880.6     0.00       0     41.1
 340    3:50   25.3    64    5.8   174      9.1    880.6     0.00       0     41.1
 340    4:00   27.8    60    5.6   172      8.2    880.7     0.00       0     41.1
 340    4:10   28.1    61    5.6   167      9.6    880.6     0.00       0     41.1
 340    4:20   31.2    56    5.3   182      8.9    880.7     0.00       0     41.0
 340    4:30   30.8    56    3.5   184     11.5    880.6     0.00       0     41.0
 340    4:40   33.7    52    2.7   200      8.1    880.5     0.00       0     41.0
 340    4:50   31.8    54    2.9   196      7.5    880.5     0.00       0     41.0
 340    5:00   31.6    55    2.4   141      5.7    880.6     0.00       0     41.0
 340    5:10   29.5    58    2.9   163      6.6    880.7     0.00       0     41.0
 340    5:20   29.9    59    1.4   135      4.5    880.7     0.00       0     41.0
 340    5:30   29.6    59    2.7   132      6.9    880.8     0.00       0     41.0
 340    5:40   30.0    60    2.7   187      6.6    880.9     0.00       0     40.9
 340    5:50   30.1    59    6.6   174      8.7    880.9     0.00       0     40.9
 340    6:00   28.3    61    4.0   166      7.9    880.9     0.00       0     40.9
 340    6:10   27.6    63    0.4   128      2.7    881.0     0.00       0     40.9
 340    6:20   27.1    63    0.0     0      0.0    881.1     0.00       0     40.9
 340    6:30   27.5    64    0.0     0      0.0    881.1     0.00       0     40.9
 340    6:40   25.0    64    0.2   124      3.3    881.1     0.00       0     40.9
 340    6:50   23.1    66    0.0     0      0.0    881.3     0.00       1     40.8
 340    7:00   20.8    68    0.0     0      0.0    881.4     0.00       4     40.8
 340    7:10   20.2    71    0.0     0      0.0    881.4     0.00      10     40.8
 340    7:20   21.6    73    0.0   104      0.5    881.6     0.00      32     40.7
 340    7:30   22.9    72    0.0     0      0.0    881.8     0.00      59     40.7
 340    7:40   22.2    70    0.0   300      2.8    881.9     0.00      73     40.6
 340    7:50   20.9    69    2.1   304      5.5    882.0     0.00      80     40.6
 340    8:00   21.1    70    0.3   295      3.6    882.2     0.00     119     40.6
 340    8:10   22.8    69    0.0     0      0.0    882.3     0.00     161     40.6
 340    8:20   24.7    68    0.0     0      0.0    882.5     0.00     184     40.6
 340    8:30   27.8    68    0.0     0      0.0    882.7     0.00     219     40.6
 340    8:40   32.4    64    0.5   221      3.4    882.7     0.00     250     40.6
 340    8:50   34.4    60    1.0   254      4.7    882.8     0.00     240     40.6
 340    9:00   34.7    62    3.3   255      4.8    882.9     0.00     278     40.6
 340    9:10   36.4    63    0.7   244      3.2    882.9     0.00     308     40.5
 340    9:20   38.8    59    0.0     0      0.0    883.0     0.00     341     40.5
 340    9:30   40.6    56    0.4   288      4.3    883.0     0.00     346     40.5
 340    9:40   39.0    59    4.1   288      7.6    882.9     0.00     311     40.5
 340    9:50   38.4    60    6.0   309      9.6    882.8     0.00     323     40.5
 340   10:00   38.4    60    6.4   316      9.7    882.8     0.00     301     40.6
 340   10:10   38.3    60    7.2   305     10.7    882.7     0.00     348     40.5
 340   10:20   39.0    59    7.5   308     10.2    882.6     0.00     424     40.5

Return to Blowing Sand Mountains graphs page.


Western Regional Climate Center,wrcc@dri.edu